sensor_id;sensor_type;location;lat;lon;timestamp;P1;durP1;ratioP1;P2;durP2;ratioP2
60306;SDS011;46155;52.364;6.580;2023-07-31T03:02:20;27.17;;;25.60;;
60306;SDS011;46155;52.364;6.580;2023-07-31T03:04:46;25.57;;;24.07;;
60306;SDS011;46155;52.364;6.580;2023-07-31T03:07:11;28.67;;;27.17;;
60306;SDS011;46155;52.364;6.580;2023-07-31T03:09:36;28.07;;;26.47;;
60306;SDS011;46155;52.364;6.580;2023-07-31T03:12:02;27.10;;;25.53;;
60306;SDS011;46155;52.364;6.580;2023-07-31T03:17:02;29.87;;;28.27;;
60306;SDS011;46155;52.364;6.580;2023-07-31T03:19:30;30.50;;;28.90;;
60306;SDS011;46155;52.364;6.580;2023-07-31T03:21:56;31.00;;;29.23;;
60306;SDS011;46155;52.364;6.580;2023-07-31T03:24:21;30.00;;;28.30;;
60306;SDS011;46155;52.364;6.580;2023-07-31T03:26:46;29.40;;;27.43;;
60306;SDS011;46155;52.364;6.580;2023-07-31T03:29:11;30.67;;;28.67;;
60306;SDS011;46155;52.364;6.580;2023-07-31T03:31:37;29.03;;;27.43;;
60306;SDS011;46155;52.364;6.580;2023-07-31T03:34:02;28.23;;;26.33;;
60306;SDS011;46155;52.364;6.580;2023-07-31T03:36:27;31.00;;;28.27;;
60306;SDS011;46155;52.364;6.580;2023-07-31T03:38:53;30.07;;;28.37;;
60306;SDS011;46155;52.364;6.580;2023-07-31T03:41:18;29.60;;;27.80;;
60306;SDS011;46155;52.364;6.580;2023-07-31T03:43:45;29.57;;;27.87;;
60306;SDS011;46155;52.364;6.580;2023-07-31T03:46:11;30.50;;;28.50;;
60306;SDS011;46155;52.364;6.580;2023-07-31T03:48:36;28.50;;;26.80;;
60306;SDS011;46155;52.364;6.580;2023-07-31T03:51:02;31.23;;;29.13;;
60306;SDS011;46155;52.364;6.580;2023-07-31T03:53:28;32.03;;;30.03;;
60306;SDS011;46155;52.364;6.580;2023-07-31T03:55:53;32.03;;;29.83;;
60306;SDS011;46155;52.364;6.580;2023-07-31T03:58:18;31.97;;;29.67;;
60306;SDS011;46155;52.364;6.580;2023-07-31T04:00:44;33.73;;;30.87;;
60306;SDS011;46155;52.364;6.580;2023-07-31T04:03:10;34.00;;;31.47;;
60306;SDS011;46155;52.364;6.580;2023-07-31T04:05:37;34.40;;;31.70;;
60306;SDS011;46155;52.364;6.580;2023-07-31T04:08:03;38.23;;;34.87;;
60306;SDS011;46155;52.364;6.580;2023-07-31T04:10:28;36.20;;;33.70;;
60306;SDS011;46155;52.364;6.580;2023-07-31T04:12:54;39.23;;;36.10;;
60306;SDS011;46155;52.364;6.580;2023-07-31T04:15:20;38.97;;;35.37;;
60306;SDS011;46155;52.364;6.580;2023-07-31T04:17:45;39.40;;;36.03;;
60306;SDS011;46155;52.364;6.580;2023-07-31T04:20:10;39.47;;;36.13;;
60306;SDS011;46155;52.364;6.580;2023-07-31T04:22:36;37.73;;;34.33;;
60306;SDS011;46155;52.364;6.580;2023-07-31T04:25:01;37.50;;;34.30;;
60306;SDS011;46155;52.364;6.580;2023-07-31T04:27:27;37.87;;;34.70;;
60306;SDS011;46155;52.364;6.580;2023-07-31T04:29:52;36.83;;;34.17;;
60306;SDS011;46155;52.364;6.580;2023-07-31T04:32:17;37.03;;;33.37;;
60306;SDS011;46155;52.364;6.580;2023-07-31T04:34:44;36.87;;;33.97;;
60306;SDS011;46155;52.364;6.580;2023-07-31T04:37:09;35.17;;;31.37;;
60306;SDS011;46155;52.364;6.580;2023-07-31T04:39:34;33.83;;;28.90;;
60306;SDS011;46155;52.364;6.580;2023-07-31T04:42:00;32.23;;;28.87;;
60306;SDS011;46155;52.364;6.580;2023-07-31T04:44:25;31.37;;;28.10;;
60306;SDS011;46155;52.364;6.580;2023-07-31T04:46:50;32.03;;;27.20;;
60306;SDS011;46155;52.364;6.580;2023-07-31T04:49:16;40.77;;;26.83;;
60306;SDS011;46155;52.364;6.580;2023-07-31T04:51:41;32.47;;;28.97;;
60306;SDS011;46155;52.364;6.580;2023-07-31T04:54:07;31.23;;;27.93;;
60306;SDS011;46155;52.364;6.580;2023-07-31T04:56:32;32.13;;;28.70;;
60306;SDS011;46155;52.364;6.580;2023-07-31T04:58:57;33.30;;;25.60;;
60306;SDS011;46155;52.364;6.580;2023-07-31T05:01:23;34.97;;;28.13;;
60306;SDS011;46155;52.364;6.580;2023-07-31T05:03:48;29.13;;;26.10;;
60306;SDS011;46155;52.364;6.580;2023-07-31T05:06:13;30.77;;;26.07;;
60306;SDS011;46155;52.364;6.580;2023-07-31T05:08:40;34.30;;;27.33;;
60306;SDS011;46155;52.364;6.580;2023-07-31T05:11:05;29.47;;;26.27;;
60306;SDS011;46155;52.364;6.580;2023-07-31T05:13:31;27.00;;;24.67;;
60306;SDS011;46155;52.364;6.580;2023-07-31T05:15:56;29.67;;;24.83;;
60306;SDS011;46155;52.364;6.580;2023-07-31T05:18:21;29.73;;;26.47;;
60306;SDS011;46155;52.364;6.580;2023-07-31T05:20:47;28.83;;;25.30;;
60306;SDS011;46155;52.364;6.580;2023-07-31T05:23:12;35.47;;;25.80;;
60306;SDS011;46155;52.364;6.580;2023-07-31T05:25:37;29.27;;;26.13;;
60306;SDS011;46155;52.364;6.580;2023-07-31T05:28:03;30.07;;;26.93;;
60306;SDS011;46155;52.364;6.580;2023-07-31T05:30:29;29.93;;;26.80;;
60306;SDS011;46155;52.364;6.580;2023-07-31T05:32:55;31.63;;;25.43;;
60306;SDS011;46155;52.364;6.580;2023-07-31T05:35:21;32.20;;;28.00;;
60306;SDS011;46155;52.364;6.580;2023-07-31T05:37:46;29.93;;;26.53;;
60306;SDS011;46155;52.364;6.580;2023-07-31T05:40:11;29.83;;;26.23;;
60306;SDS011;46155;52.364;6.580;2023-07-31T05:42:37;30.23;;;26.93;;
60306;SDS011;46155;52.364;6.580;2023-07-31T05:45:03;29.70;;;26.43;;
60306;SDS011;46155;52.364;6.580;2023-07-31T05:47:30;28.53;;;25.57;;
60306;SDS011;46155;52.364;6.580;2023-07-31T05:49:55;36.30;;;24.93;;
60306;SDS011;46155;52.364;6.580;2023-07-31T05:52:21;27.43;;;24.63;;
60306;SDS011;46155;52.364;6.580;2023-07-31T05:54:46;27.17;;;24.27;;
60306;SDS011;46155;52.364;6.580;2023-07-31T05:57:11;28.10;;;25.37;;
60306;SDS011;46155;52.364;6.580;2023-07-31T05:59:37;29.83;;;23.63;;
60306;SDS011;46155;52.364;6.580;2023-07-31T06:02:02;26.97;;;24.30;;
60306;SDS011;46155;52.364;6.580;2023-07-31T06:04:27;29.00;;;25.70;;
60306;SDS011;46155;52.364;6.580;2023-07-31T06:06:53;38.90;;;26.50;;
60306;SDS011;46155;52.364;6.580;2023-07-31T06:09:19;29.43;;;24.80;;
60306;SDS011;46155;52.364;6.580;2023-07-31T06:11:45;32.07;;;24.40;;
60306;SDS011;46155;52.364;6.580;2023-07-31T06:14:10;29.90;;;26.93;;
60306;SDS011;46155;52.364;6.580;2023-07-31T06:16:36;28.70;;;26.00;;
60306;SDS011;46155;52.364;6.580;2023-07-31T06:19:01;26.83;;;24.00;;
60306;SDS011;46155;52.364;6.580;2023-07-31T06:21:26;28.87;;;26.00;;
60306;SDS011;46155;52.364;6.580;2023-07-31T06:23:52;35.63;;;28.37;;
60306;SDS011;46155;52.364;6.580;2023-07-31T06:26:17;30.10;;;27.27;;
60306;SDS011;46155;52.364;6.580;2023-07-31T06:28:43;27.70;;;24.27;;
60306;SDS011;46155;52.364;6.580;2023-07-31T06:31:08;36.80;;;26.13;;
60306;SDS011;46155;52.364;6.580;2023-07-31T06:33:34;28.90;;;25.47;;
60306;SDS011;46155;52.364;6.580;2023-07-31T06:35:59;27.90;;;24.53;;
60306;SDS011;46155;52.364;6.580;2023-07-31T06:38:25;28.60;;;25.63;;
60306;SDS011;46155;52.364;6.580;2023-07-31T06:40:52;35.27;;;26.50;;
60306;SDS011;46155;52.364;6.580;2023-07-31T06:43:17;30.30;;;27.30;;
60306;SDS011;46155;52.364;6.580;2023-07-31T06:45:43;30.60;;;27.20;;
60306;SDS011;46155;52.364;6.580;2023-07-31T06:48:08;30.80;;;26.60;;
60306;SDS011;46155;52.364;6.580;2023-07-31T06:50:34;29.60;;;26.37;;
60306;SDS011;46155;52.364;6.580;2023-07-31T06:52:59;29.50;;;25.30;;
60306;SDS011;46155;52.364;6.580;2023-07-31T06:55:25;28.23;;;24.00;;
60306;SDS011;46155;52.364;6.580;2023-07-31T06:57:51;27.47;;;24.87;;
60306;SDS011;46155;52.364;6.580;2023-07-31T07:00:18;28.43;;;25.77;;
60306;SDS011;46155;52.364;6.580;2023-07-31T07:02:45;27.20;;;25.07;;
60306;SDS011;46155;52.364;6.580;2023-07-31T07:05:12;28.40;;;25.63;;
60306;SDS011;46155;52.364;6.580;2023-07-31T07:07:38;28.23;;;24.00;;
60306;SDS011;46155;52.364;6.580;2023-07-31T07:10:04;26.60;;;24.03;;
60306;SDS011;46155;52.364;6.580;2023-07-31T07:12:30;24.40;;;22.73;;
60306;SDS011;46155;52.364;6.580;2023-07-31T07:14:57;25.00;;;23.00;;
60306;SDS011;46155;52.364;6.580;2023-07-31T07:17:25;26.07;;;23.63;;
60306;SDS011;46155;52.364;6.580;2023-07-31T07:19:51;26.60;;;24.47;;
60306;SDS011;46155;52.364;6.580;2023-07-31T07:22:17;25.77;;;23.63;;
60306;SDS011;46155;52.364;6.580;2023-07-31T07:24:43;26.07;;;24.10;;
60306;SDS011;46155;52.364;6.580;2023-07-31T07:27:08;24.80;;;22.87;;
60306;SDS011;46155;52.364;6.580;2023-07-31T07:29:34;25.80;;;23.83;;
60306;SDS011;46155;52.364;6.580;2023-07-31T07:31:59;27.47;;;25.43;;
60306;SDS011;46155;52.364;6.580;2023-07-31T07:34:25;26.77;;;24.77;;
60306;SDS011;46155;52.364;6.580;2023-07-31T07:36:51;25.57;;;23.57;;
60306;SDS011;46155;52.364;6.580;2023-07-31T07:39:17;25.93;;;23.70;;
60306;SDS011;46155;52.364;6.580;2023-07-31T07:41:42;27.50;;;25.37;;
60306;SDS011;46155;52.364;6.580;2023-07-31T07:44:08;25.80;;;23.67;;
60306;SDS011;46155;52.364;6.580;2023-07-31T07:46:33;25.73;;;24.00;;
60306;SDS011;46155;52.364;6.580;2023-07-31T07:48:59;24.90;;;22.90;;
60306;SDS011;46155;52.364;6.580;2023-07-31T07:51:24;26.30;;;24.40;;
60306;SDS011;46155;52.364;6.580;2023-07-31T07:53:50;26.47;;;24.23;;
60306;SDS011;46155;52.364;6.580;2023-07-31T07:56:15;28.17;;;26.00;;
60306;SDS011;46155;52.364;6.580;2023-07-31T07:58:41;27.23;;;25.43;;
60306;SDS011;46155;52.364;6.580;2023-07-31T08:01:06;26.13;;;24.47;;
60306;SDS011;46155;52.364;6.580;2023-07-31T08:03:31;28.20;;;26.30;;
60306;SDS011;46155;52.364;6.580;2023-07-31T08:05:57;25.27;;;23.87;;
60306;SDS011;46155;52.364;6.580;2023-07-31T08:08:23;27.60;;;25.93;;
60306;SDS011;46155;52.364;6.580;2023-07-31T08:10:49;27.00;;;25.20;;
60306;SDS011;46155;52.364;6.580;2023-07-31T08:13:14;25.10;;;23.50;;
60306;SDS011;46155;52.364;6.580;2023-07-31T08:15:42;24.00;;;22.27;;
60306;SDS011;46155;52.364;6.580;2023-07-31T08:18:08;24.70;;;23.23;;
60306;SDS011;46155;52.364;6.580;2023-07-31T08:20:33;25.37;;;23.67;;
60306;SDS011;46155;52.364;6.580;2023-07-31T08:22:59;28.07;;;26.27;;
60306;SDS011;46155;52.364;6.580;2023-07-31T08:25:24;26.63;;;24.97;;
60306;SDS011;46155;52.364;6.580;2023-07-31T08:27:50;25.20;;;23.80;;
60306;SDS011;46155;52.364;6.580;2023-07-31T08:30:17;26.40;;;24.90;;
60306;SDS011;46155;52.364;6.580;2023-07-31T08:32:43;24.30;;;23.00;;
60306;SDS011;46155;52.364;6.580;2023-07-31T08:35:09;26.70;;;25.20;;
60306;SDS011;46155;52.364;6.580;2023-07-31T08:37:34;25.70;;;24.23;;
60306;SDS011;46155;52.364;6.580;2023-07-31T08:39:59;25.13;;;23.83;;
60306;SDS011;46155;52.364;6.580;2023-07-31T08:42:25;25.00;;;23.57;;
60306;SDS011;46155;52.364;6.580;2023-07-31T08:44:50;23.73;;;22.53;;
60306;SDS011;46155;52.364;6.580;2023-07-31T08:47:16;23.43;;;22.17;;
60306;SDS011;46155;52.364;6.580;2023-07-31T08:49:42;23.67;;;22.53;;
60306;SDS011;46155;52.364;6.580;2023-07-31T08:52:08;23.53;;;22.33;;
60306;SDS011;46155;52.364;6.580;2023-07-31T08:54:35;22.73;;;21.63;;
60306;SDS011;46155;52.364;6.580;2023-07-31T08:57:00;23.70;;;22.50;;
60306;SDS011;46155;52.364;6.580;2023-07-31T08:59:29;24.93;;;23.73;;
60306;SDS011;46155;52.364;6.580;2023-07-31T09:01:56;24.30;;;23.10;;
60306;SDS011;46155;52.364;6.580;2023-07-31T09:04:28;25.57;;;24.27;;
60306;SDS011;46155;52.364;6.580;2023-07-31T09:06:57;25.77;;;24.47;;
60306;SDS011;46155;52.364;6.580;2023-07-31T09:09:25;25.60;;;24.40;;
60306;SDS011;46155;52.364;6.580;2023-07-31T09:11:51;23.37;;;22.27;;
60306;SDS011;46155;52.364;6.580;2023-07-31T09:14:17;23.73;;;22.63;;
60306;SDS011;46155;52.364;6.580;2023-07-31T09:16:56;24.20;;;23.03;;
60306;SDS011;46155;52.364;6.580;2023-07-31T09:19:25;23.53;;;22.43;;
60306;SDS011;46155;52.364;6.580;2023-07-31T09:21:52;22.67;;;21.47;;
60306;SDS011;46155;52.364;6.580;2023-07-31T09:24:35;22.57;;;21.57;;
60306;SDS011;46155;52.364;6.580;2023-07-31T09:27:01;22.97;;;21.47;;
60306;SDS011;46155;52.364;6.580;2023-07-31T09:29:27;23.57;;;22.47;;
60306;SDS011;46155;52.364;6.580;2023-07-31T09:31:54;23.47;;;22.37;;
60306;SDS011;46155;52.364;6.580;2023-07-31T09:34:21;24.07;;;22.80;;
60306;SDS011;46155;52.364;6.580;2023-07-31T09:36:54;24.87;;;23.67;;
60306;SDS011;46155;52.364;6.580;2023-07-31T09:39:19;24.47;;;23.27;;
60306;SDS011;46155;52.364;6.580;2023-07-31T09:41:47;25.40;;;24.10;;
60306;SDS011;46155;52.364;6.580;2023-07-31T09:44:18;24.90;;;23.70;;
60306;SDS011;46155;52.364;6.580;2023-07-31T09:46:43;23.20;;;22.10;;
60306;SDS011;46155;52.364;6.580;2023-07-31T09:51:35;23.90;;;22.70;;
60306;SDS011;46155;52.364;6.580;2023-07-31T09:54:04;24.07;;;22.87;;
60306;SDS011;46155;52.364;6.580;2023-07-31T09:56:34;25.07;;;23.87;;
60306;SDS011;46155;52.364;6.580;2023-07-31T09:59:01;24.43;;;23.23;;
60306;SDS011;46155;52.364;6.580;2023-07-31T10:01:29;23.97;;;22.77;;
60306;SDS011;46155;52.364;6.580;2023-07-31T10:03:54;23.43;;;22.23;;
60306;SDS011;46155;52.364;6.580;2023-07-31T10:06:20;26.37;;;24.97;;
60306;SDS011;46155;52.364;6.580;2023-07-31T10:08:47;24.63;;;23.43;;
60306;SDS011;46155;52.364;6.580;2023-07-31T10:11:16;26.50;;;25.10;;
60306;SDS011;46155;52.364;6.580;2023-07-31T10:13:42;26.57;;;25.17;;
60306;SDS011;46155;52.364;6.580;2023-07-31T10:16:09;29.50;;;27.80;;
60306;SDS011;46155;52.364;6.580;2023-07-31T10:18:35;27.30;;;25.80;;
60306;SDS011;46155;52.364;6.580;2023-07-31T10:21:01;26.17;;;24.77;;
60306;SDS011;46155;52.364;6.580;2023-07-31T10:23:27;28.40;;;26.90;;
60306;SDS011;46155;52.364;6.580;2023-07-31T10:25:53;27.60;;;26.10;;
60306;SDS011;46155;52.364;6.580;2023-07-31T10:28:20;27.73;;;26.27;;
60306;SDS011;46155;52.364;6.580;2023-07-31T10:30:45;26.90;;;25.50;;
60306;SDS011;46155;52.364;6.580;2023-07-31T10:33:11;27.97;;;26.47;;
60306;SDS011;46155;52.364;6.580;2023-07-31T10:35:36;26.77;;;25.37;;
60306;SDS011;46155;52.364;6.580;2023-07-31T10:38:09;25.67;;;24.37;;
60306;SDS011;46155;52.364;6.580;2023-07-31T10:40:36;25.73;;;24.43;;
60306;SDS011;46155;52.364;6.580;2023-07-31T10:43:02;26.80;;;25.40;;
60306;SDS011;46155;52.364;6.580;2023-07-31T10:45:31;29.70;;;28.00;;
60306;SDS011;46155;52.364;6.580;2023-07-31T10:48:02;27.50;;;26.00;;
60306;SDS011;46155;52.364;6.580;2023-07-31T10:50:29;27.37;;;25.87;;
60306;SDS011;46155;52.364;6.580;2023-07-31T10:56:11;27.70;;;25.90;;
60306;SDS011;46155;52.364;6.580;2023-07-31T10:58:39;28.53;;;26.73;;
60306;SDS011;46155;52.364;6.580;2023-07-31T11:01:04;27.37;;;25.93;;
60306;SDS011;46155;52.364;6.580;2023-07-31T11:03:49;27.80;;;26.27;;
60306;SDS011;46155;52.364;6.580;2023-07-31T11:06:18;27.50;;;25.90;;
60306;SDS011;46155;52.364;6.580;2023-07-31T11:11:11;28.73;;;27.03;;
60306;SDS011;46155;52.364;6.580;2023-07-31T11:16:11;28.87;;;27.13;;
60306;SDS011;46155;52.364;6.580;2023-07-31T11:18:44;29.33;;;27.37;;
60306;SDS011;46155;52.364;6.580;2023-07-31T11:23:39;29.80;;;27.70;;
60306;SDS011;46155;52.364;6.580;2023-07-31T11:26:05;30.83;;;28.93;;
60306;SDS011;46155;52.364;6.580;2023-07-31T11:28:32;29.30;;;27.40;;
60306;SDS011;46155;52.364;6.580;2023-07-31T11:30:59;29.00;;;27.10;;
60306;SDS011;46155;52.364;6.580;2023-07-31T11:33:25;29.77;;;27.77;;
60306;SDS011;46155;52.364;6.580;2023-07-31T11:35:50;30.33;;;28.13;;
60306;SDS011;46155;52.364;6.580;2023-07-31T11:38:25;30.67;;;28.77;;
60306;SDS011;46155;52.364;6.580;2023-07-31T11:40:53;30.23;;;28.03;;
60306;SDS011;46155;52.364;6.580;2023-07-31T11:43:21;29.83;;;27.63;;
60306;SDS011;46155;52.364;6.580;2023-07-31T11:45:48;30.60;;;28.47;;
60306;SDS011;46155;52.364;6.580;2023-07-31T11:48:21;29.57;;;27.63;;
60306;SDS011;46155;52.364;6.580;2023-07-31T11:51:04;29.03;;;27.00;;
60306;SDS011;46155;52.364;6.580;2023-07-31T11:53:34;29.03;;;26.80;;
60306;SDS011;46155;52.364;6.580;2023-07-31T11:56:03;32.10;;;29.63;;
60306;SDS011;46155;52.364;6.580;2023-07-31T11:58:31;31.77;;;29.20;;
60306;SDS011;46155;52.364;6.580;2023-07-31T12:00:58;32.27;;;29.83;;
60306;SDS011;46155;52.364;6.580;2023-07-31T12:03:24;32.03;;;29.67;;
60306;SDS011;46155;52.364;6.580;2023-07-31T12:05:50;31.47;;;29.30;;
60306;SDS011;46155;52.364;6.580;2023-07-31T12:08:18;32.07;;;29.47;;
60306;SDS011;46155;52.364;6.580;2023-07-31T12:10:46;32.90;;;30.23;;
60306;SDS011;46155;52.364;6.580;2023-07-31T12:13:19;32.93;;;29.97;;
60306;SDS011;46155;52.364;6.580;2023-07-31T12:15:46;32.70;;;29.87;;
60306;SDS011;46155;52.364;6.580;2023-07-31T12:18:15;30.60;;;28.30;;
60306;SDS011;46155;52.364;6.580;2023-07-31T12:20:44;31.90;;;29.70;;
60306;SDS011;46155;52.364;6.580;2023-07-31T12:25:40;30.87;;;28.87;;
60306;SDS011;46155;52.364;6.580;2023-07-31T12:28:06;33.47;;;31.07;;
60306;SDS011;46155;52.364;6.580;2023-07-31T12:30:36;32.30;;;29.90;;
60306;SDS011;46155;52.364;6.580;2023-07-31T12:33:06;33.77;;;31.13;;
60306;SDS011;46155;52.364;6.580;2023-07-31T12:35:37;31.90;;;29.60;;
60306;SDS011;46155;52.364;6.580;2023-07-31T12:38:05;32.70;;;30.37;;
60306;SDS011;46155;52.364;6.580;2023-07-31T12:40:31;31.80;;;29.60;;
60306;SDS011;46155;52.364;6.580;2023-07-31T12:42:57;32.67;;;30.37;;
60306;SDS011;46155;52.364;6.580;2023-07-31T12:45:22;31.20;;;28.80;;
60306;SDS011;46155;52.364;6.580;2023-07-31T12:47:48;31.67;;;29.13;;
60306;SDS011;46155;52.364;6.580;2023-07-31T12:50:13;31.60;;;28.97;;
60306;SDS011;46155;52.364;6.580;2023-07-31T12:52:39;31.40;;;29.00;;
60306;SDS011;46155;52.364;6.580;2023-07-31T12:55:04;29.90;;;28.00;;
60306;SDS011;46155;52.364;6.580;2023-07-31T12:57:30;29.77;;;27.33;;
60306;SDS011;46155;52.364;6.580;2023-07-31T12:59:55;27.77;;;25.70;;
60306;SDS011;46155;52.364;6.580;2023-07-31T13:02:21;29.27;;;26.97;;
60306;SDS011;46155;52.364;6.580;2023-07-31T13:04:46;29.87;;;27.90;;
60306;SDS011;46155;52.364;6.580;2023-07-31T13:07:12;30.93;;;28.47;;
60306;SDS011;46155;52.364;6.580;2023-07-31T13:09:37;28.30;;;26.30;;
60306;SDS011;46155;52.364;6.580;2023-07-31T13:12:02;31.30;;;29.20;;
60306;SDS011;46155;52.364;6.580;2023-07-31T13:14:28;28.47;;;26.60;;
60306;SDS011;46155;52.364;6.580;2023-07-31T13:16:53;29.33;;;27.37;;
60306;SDS011;46155;52.364;6.580;2023-07-31T13:19:19;30.73;;;28.43;;
60306;SDS011;46155;52.364;6.580;2023-07-31T13:21:44;29.77;;;27.67;;
60306;SDS011;46155;52.364;6.580;2023-07-31T13:24:09;30.90;;;28.60;;
60306;SDS011;46155;52.364;6.580;2023-07-31T13:26:36;29.87;;;27.67;;
60306;SDS011;46155;52.364;6.580;2023-07-31T13:29:02;32.37;;;30.00;;
60306;SDS011;46155;52.364;6.580;2023-07-31T13:31:27;32.93;;;30.33;;
60306;SDS011;46155;52.364;6.580;2023-07-31T13:33:53;29.97;;;27.77;;
60306;SDS011;46155;52.364;6.580;2023-07-31T13:36:18;30.70;;;28.50;;
60306;SDS011;46155;52.364;6.580;2023-07-31T13:38:43;29.97;;;27.87;;
60306;SDS011;46155;52.364;6.580;2023-07-31T13:41:08;31.17;;;28.87;;
60306;SDS011;46155;52.364;6.580;2023-07-31T13:43:34;29.43;;;27.33;;
60306;SDS011;46155;52.364;6.580;2023-07-31T13:45:59;30.90;;;28.70;;
60306;SDS011;46155;52.364;6.580;2023-07-31T13:48:31;28.77;;;26.50;;
60306;SDS011;46155;52.364;6.580;2023-07-31T13:50:58;30.10;;;27.67;;
60306;SDS011;46155;52.364;6.580;2023-07-31T13:53:23;29.17;;;26.60;;
60306;SDS011;46155;52.364;6.580;2023-07-31T13:55:48;29.40;;;27.20;;
60306;SDS011;46155;52.364;6.580;2023-07-31T13:58:14;29.03;;;26.57;;
60306;SDS011;46155;52.364;6.580;2023-07-31T14:00:39;27.73;;;25.63;;
60306;SDS011;46155;52.364;6.580;2023-07-31T14:03:04;31.50;;;29.20;;
60306;SDS011;46155;52.364;6.580;2023-07-31T14:05:30;30.40;;;28.27;;
60306;SDS011;46155;52.364;6.580;2023-07-31T14:07:55;30.37;;;28.13;;
60306;SDS011;46155;52.364;6.580;2023-07-31T14:10:21;29.77;;;27.40;;
60306;SDS011;46155;52.364;6.580;2023-07-31T14:12:47;30.37;;;28.37;;
60306;SDS011;46155;52.364;6.580;2023-07-31T14:15:12;30.13;;;28.03;;
60306;SDS011;46155;52.364;6.580;2023-07-31T14:17:38;30.30;;;28.10;;
60306;SDS011;46155;52.364;6.580;2023-07-31T14:20:03;31.17;;;29.17;;
60306;SDS011;46155;52.364;6.580;2023-07-31T14:22:30;31.40;;;29.00;;
60306;SDS011;46155;52.364;6.580;2023-07-31T14:24:55;30.87;;;28.63;;
60306;SDS011;46155;52.364;6.580;2023-07-31T14:27:21;29.17;;;27.17;;
60306;SDS011;46155;52.364;6.580;2023-07-31T14:29:46;29.83;;;27.73;;
60306;SDS011;46155;52.364;6.580;2023-07-31T14:32:11;31.60;;;28.83;;
60306;SDS011;46155;52.364;6.580;2023-07-31T14:34:37;31.83;;;29.63;;
60306;SDS011;46155;52.364;6.580;2023-07-31T14:37:02;31.10;;;28.50;;
60306;SDS011;46155;52.364;6.580;2023-07-31T14:39:28;30.63;;;28.13;;
60306;SDS011;46155;52.364;6.580;2023-07-31T14:41:53;30.67;;;28.47;;
60306;SDS011;46155;52.364;6.580;2023-07-31T14:44:19;32.23;;;29.80;;
60306;SDS011;46155;52.364;6.580;2023-07-31T14:46:44;30.47;;;28.37;;
60306;SDS011;46155;52.364;6.580;2023-07-31T14:49:09;31.47;;;29.00;;
60306;SDS011;46155;52.364;6.580;2023-07-31T14:51:35;31.67;;;29.13;;
60306;SDS011;46155;52.364;6.580;2023-07-31T14:54:00;29.87;;;27.70;;
60306;SDS011;46155;52.364;6.580;2023-07-31T14:56:25;29.10;;;27.10;;
60306;SDS011;46155;52.364;6.580;2023-07-31T14:58:52;28.93;;;26.83;;
60306;SDS011;46155;52.364;6.580;2023-07-31T15:01:18;30.20;;;28.10;;
60306;SDS011;46155;52.364;6.580;2023-07-31T15:03:43;28.63;;;26.53;;
60306;SDS011;46155;52.364;6.580;2023-07-31T15:06:08;28.17;;;26.03;;
60306;SDS011;46155;52.364;6.580;2023-07-31T15:08:34;28.43;;;26.53;;
60306;SDS011;46155;52.364;6.580;2023-07-31T15:11:01;28.63;;;26.73;;
60306;SDS011;46155;52.364;6.580;2023-07-31T15:13:26;29.10;;;27.00;;
60306;SDS011;46155;52.364;6.580;2023-07-31T15:15:51;30.27;;;27.60;;
60306;SDS011;46155;52.364;6.580;2023-07-31T15:18:17;29.17;;;27.00;;
60306;SDS011;46155;52.364;6.580;2023-07-31T15:20:43;26.53;;;24.60;;
60306;SDS011;46155;52.364;6.580;2023-07-31T15:23:09;28.90;;;26.97;;
60306;SDS011;46155;52.364;6.580;2023-07-31T15:25:34;28.67;;;26.67;;
60306;SDS011;46155;52.364;6.580;2023-07-31T15:28:00;30.67;;;28.27;;
60306;SDS011;46155;52.364;6.580;2023-07-31T15:30:25;28.03;;;26.23;;
60306;SDS011;46155;52.364;6.580;2023-07-31T15:32:51;31.03;;;28.77;;
60306;SDS011;46155;52.364;6.580;2023-07-31T15:35:17;30.07;;;27.90;;
60306;SDS011;46155;52.364;6.580;2023-07-31T15:37:43;30.13;;;27.93;;
60306;SDS011;46155;52.364;6.580;2023-07-31T15:40:08;30.27;;;28.17;;
60306;SDS011;46155;52.364;6.580;2023-07-31T15:42:34;29.97;;;28.00;;
60306;SDS011;46155;52.364;6.580;2023-07-31T15:45:04;29.27;;;27.47;;
60306;SDS011;46155;52.364;6.580;2023-07-31T15:47:31;30.60;;;28.53;;
60306;SDS011;46155;52.364;6.580;2023-07-31T15:49:56;29.77;;;27.70;;
60306;SDS011;46155;52.364;6.580;2023-07-31T15:52:21;29.70;;;27.50;;
60306;SDS011;46155;52.364;6.580;2023-07-31T15:54:47;30.33;;;28.23;;
60306;SDS011;46155;52.364;6.580;2023-07-31T15:57:12;29.90;;;27.60;;
60306;SDS011;46155;52.364;6.580;2023-07-31T15:59:37;30.30;;;28.20;;
60306;SDS011;46155;52.364;6.580;2023-07-31T16:02:03;28.90;;;26.77;;
60306;SDS011;46155;52.364;6.580;2023-07-31T16:04:28;31.63;;;29.23;;
60306;SDS011;46155;52.364;6.580;2023-07-31T16:06:54;29.97;;;27.63;;
60306;SDS011;46155;52.364;6.580;2023-07-31T16:09:19;31.03;;;28.57;;
60306;SDS011;46155;52.364;6.580;2023-07-31T16:11:44;31.30;;;28.90;;
60306;SDS011;46155;52.364;6.580;2023-07-31T16:14:11;31.57;;;29.47;;
60306;SDS011;46155;52.364;6.580;2023-07-31T16:16:36;29.87;;;27.83;;
60306;SDS011;46155;52.364;6.580;2023-07-31T16:19:02;32.13;;;29.93;;
60306;SDS011;46155;52.364;6.580;2023-07-31T16:21:28;31.53;;;29.07;;
60306;SDS011;46155;52.364;6.580;2023-07-31T16:23:54;32.07;;;29.97;;
60306;SDS011;46155;52.364;6.580;2023-07-31T16:26:20;31.13;;;28.77;;
60306;SDS011;46155;52.364;6.580;2023-07-31T16:28:45;31.20;;;28.80;;
60306;SDS011;46155;52.364;6.580;2023-07-31T16:31:11;31.77;;;29.33;;
60306;SDS011;46155;52.364;6.580;2023-07-31T16:33:36;32.03;;;29.63;;
60306;SDS011;46155;52.364;6.580;2023-07-31T16:36:02;32.47;;;30.37;;
60306;SDS011;46155;52.364;6.580;2023-07-31T16:38:27;32.10;;;30.00;;
60306;SDS011;46155;52.364;6.580;2023-07-31T16:40:52;30.77;;;28.47;;
60306;SDS011;46155;52.364;6.580;2023-07-31T16:43:18;31.87;;;29.53;;
60306;SDS011;46155;52.364;6.580;2023-07-31T16:45:43;30.37;;;28.17;;
60306;SDS011;46155;52.364;6.580;2023-07-31T16:48:08;33.53;;;31.10;;
60306;SDS011;46155;52.364;6.580;2023-07-31T16:50:34;32.80;;;29.93;;
60306;SDS011;46155;52.364;6.580;2023-07-31T16:52:59;31.17;;;28.93;;
60306;SDS011;46155;52.364;6.580;2023-07-31T16:55:24;31.40;;;29.13;;
60306;SDS011;46155;52.364;6.580;2023-07-31T16:57:50;32.77;;;29.77;;
60306;SDS011;46155;52.364;6.580;2023-07-31T17:00:15;31.37;;;29.13;;
60306;SDS011;46155;52.364;6.580;2023-07-31T17:02:41;32.37;;;30.07;;
60306;SDS011;46155;52.364;6.580;2023-07-31T17:05:06;33.17;;;31.20;;
60306;SDS011;46155;52.364;6.580;2023-07-31T17:07:33;33.03;;;30.77;;
60306;SDS011;46155;52.364;6.580;2023-07-31T17:09:58;31.13;;;29.23;;
60306;SDS011;46155;52.364;6.580;2023-07-31T17:12:23;30.47;;;28.47;;
60306;SDS011;46155;52.364;6.580;2023-07-31T17:14:49;31.50;;;29.17;;
60306;SDS011;46155;52.364;6.580;2023-07-31T17:17:14;31.00;;;28.80;;
60306;SDS011;46155;52.364;6.580;2023-07-31T17:19:40;30.93;;;29.03;;
60306;SDS011;46155;52.364;6.580;2023-07-31T17:22:05;30.00;;;27.77;;
60306;SDS011;46155;52.364;6.580;2023-07-31T17:24:31;31.03;;;28.70;;
60306;SDS011;46155;52.364;6.580;2023-07-31T17:26:56;31.20;;;29.50;;
60306;SDS011;46155;52.364;6.580;2023-07-31T17:29:26;30.60;;;28.37;;
60306;SDS011;46155;52.364;6.580;2023-07-31T17:31:53;32.17;;;30.27;;
60306;SDS011;46155;52.364;6.580;2023-07-31T17:34:18;30.13;;;28.33;;